Time;durP1;ratioP1;P1;durP2;ratioP2;P2;SDS_P1;SDS_P2;PMS_P1;PMS_P2;Temp;Humidity;BMP_temperature;BMP_pressure;BME280_temperature;BME280_humidity;BME280_pressure;Samples;Min_cycle;Max_cycle;Signal;HPM_P1;HPM_P2
2021/09/25 00:02:00;;;;;;;8.45;7.53;;;17.10;99.90;;;;;;5011060;28;20050;-60
2021/09/25 00:04:26;;;;;;;12.35;7.70;;;17.10;99.90;;;;;;5012796;28;20058;-60
2021/09/25 00:06:52;;;;;;;9.25;7.55;;;17.10;99.80;;;;;;5013322;28;20037;-59
2021/09/25 00:09:18;;;;;;;11.00;7.53;;;17.20;99.70;;;;;;5013097;28;20044;-61
2021/09/25 00:11:43;;;;;;;9.45;7.55;;;17.30;99.60;;;;;;5012786;28;20105;-61
2021/09/25 00:14:09;;;;;;;8.85;7.45;;;17.30;99.60;;;;;;5012733;28;20459;-63
2021/09/25 00:16:35;;;;;;;8.13;7.30;;;17.30;99.90;;;;;;5012546;28;20055;-61
2021/09/25 00:19:01;;;;;;;9.27;8.05;;;17.30;99.80;;;;;;5012449;28;20110;-60
2021/09/25 00:21:28;;;;;;;8.75;7.32;;;17.30;99.70;;;;;;5012390;28;20136;-60
2021/09/25 00:23:53;;;;;;;8.93;7.25;;;17.30;99.70;;;;;;5012493;28;20030;-62
2021/09/25 00:26:20;;;;;;;9.07;6.90;;;17.20;99.70;;;;;;5012556;28;20061;-59
2021/09/25 00:28:46;;;;;;;8.02;6.97;;;17.20;99.80;;;;;;5012623;28;20040;-58
2021/09/25 00:31:12;;;;;;;8.48;7.47;;;17.20;99.80;;;;;;5011557;28;20504;-60
2021/09/25 00:33:38;;;;;;;6.93;6.22;;;17.30;99.70;;;;;;5012161;28;20033;-59
2021/09/25 00:36:04;;;;;;;8.18;6.85;;;17.20;99.80;;;;;;5011186;28;20061;-59
2021/09/25 00:38:30;;;;;;;9.80;7.13;;;17.20;99.80;;;;;;5012737;28;20385;-58
2021/09/25 00:40:56;;;;;;;9.15;6.93;;;17.20;99.80;;;;;;5010968;28;20022;-57
2021/09/25 00:43:22;;;;;;;7.38;6.20;;;17.20;99.80;;;;;;5012443;28;20541;-59
2021/09/25 00:45:47;;;;;;;9.43;6.55;;;17.20;99.70;;;;;;5012874;28;20592;-55
2021/09/25 00:48:13;;;;;;;9.38;6.47;;;17.10;99.80;;;;;;5012165;28;20456;-54
2021/09/25 00:50:39;;;;;;;7.15;5.80;;;17.20;99.60;;;;;;5012384;28;20036;-57
2021/09/25 00:53:05;;;;;;;8.27;6.07;;;17.10;99.60;;;;;;5008986;28;20030;-53
2021/09/25 00:55:30;;;;;;;8.27;5.75;;;17.10;99.60;;;;;;5011959;28;20095;-57
2021/09/25 00:58:03;;;;;;;8.10;5.75;;;17.00;99.70;;;;;;5012216;28;20096;-56
2021/09/25 01:00:30;;;;;;;6.00;5.40;;;17.10;99.40;;;;;;5009503;28;20025;-56
2021/09/25 01:02:56;;;;;;;9.18;5.43;;;17.10;99.40;;;;;;5011449;28;20022;-57
2021/09/25 01:05:23;;;;;;;6.22;5.18;;;17.10;99.40;;;;;;5011186;28;20026;-54
2021/09/25 01:07:49;;;;;;;6.03;5.38;;;17.00;99.30;;;;;;5011547;28;20486;-59
2021/09/25 01:10:16;;;;;;;7.35;5.57;;;17.00;99.40;;;;;;5011421;28;20088;-54
2021/09/25 01:12:42;;;;;;;6.25;5.10;;;16.90;99.30;;;;;;5011349;28;20045;-56
2021/09/25 01:15:08;;;;;;;8.90;5.72;;;16.90;99.30;;;;;;5011294;28;20033;-58
2021/09/25 01:17:34;;;;;;;6.13;5.35;;;16.90;99.30;;;;;;5009442;28;20041;-55
2021/09/25 01:20:00;;;;;;;5.90;5.30;;;16.90;99.30;;;;;;5010312;28;20133;-57
2021/09/25 01:22:30;;;;;;;6.72;5.00;;;16.90;99.30;;;;;;5035258;28;20048;-54
2021/09/25 01:24:56;;;;;;;8.93;5.72;;;16.80;99.30;;;;;;5011672;28;20050;-57
2021/09/25 01:27:21;;;;;;;6.00;4.90;;;16.90;99.10;;;;;;5011307;28;20026;-59
2021/09/25 01:29:47;;;;;;;8.57;5.03;;;16.80;99.20;;;;;;5012530;28;20041;-60
2021/09/25 01:32:13;;;;;;;7.22;4.60;;;16.80;99.20;;;;;;5011749;28;20056;-58
2021/09/25 01:34:39;;;;;;;6.63;4.90;;;16.80;99.20;;;;;;5011914;28;20022;-58
2021/09/25 01:37:05;;;;;;;6.38;5.00;;;16.80;99.30;;;;;;5011423;28;20042;-57
2021/09/25 01:39:31;;;;;;;7.35;5.05;;;16.60;99.40;;;;;;5011976;28;20120;-55
2021/09/25 01:41:58;;;;;;;6.35;4.70;;;16.70;99.40;;;;;;5011794;28;20634;-56
2021/09/25 01:44:26;;;;;;;5.57;4.63;;;16.70;99.30;;;;;;5010514;28;20386;-53
2021/09/25 01:46:53;;;;;;;8.10;5.30;;;16.70;99.30;;;;;;5012018;28;20050;-59
2021/09/25 01:49:19;;;;;;;6.00;5.03;;;16.60;99.30;;;;;;5014912;28;20038;-55
2021/09/25 01:51:45;;;;;;;6.53;4.80;;;16.60;99.40;;;;;;5015743;28;20195;-59
2021/09/25 01:54:12;;;;;;;5.78;5.03;;;16.60;99.50;;;;;;5016787;28;20549;-52
2021/09/25 01:56:39;;;;;;;6.55;5.20;;;16.60;99.30;;;;;;5015132;28;20438;-59
2021/09/25 01:59:05;;;;;;;6.50;5.22;;;16.60;99.50;;;;;;5013908;28;20440;-55
2021/09/25 02:01:31;;;;;;;6.07;5.38;;;16.40;99.60;;;;;;5015120;28;20042;-65
2021/09/25 02:03:57;;;;;;;7.18;5.70;;;16.30;99.80;;;;;;5015137;28;20513;-57
2021/09/25 02:06:23;;;;;;;6.70;5.63;;;16.30;99.90;;;;;;5013958;28;20498;-56
2021/09/25 02:08:49;;;;;;;6.18;5.57;;;16.30;99.70;;;;;;5016114;28;20042;-55
2021/09/25 02:11:15;;;;;;;7.15;5.88;;;16.30;99.50;;;;;;5016909;28;20034;-56
2021/09/25 02:13:41;;;;;;;6.82;5.60;;;16.40;99.50;;;;;;5015437;28;20036;-59
2021/09/25 02:16:07;;;;;;;7.45;5.53;;;16.30;99.60;;;;;;5013881;28;20124;-55
2021/09/25 02:18:33;;;;;;;6.45;5.55;;;16.30;99.60;;;;;;5015377;28;20537;-57
2021/09/25 02:20:58;;;;;;;7.53;5.57;;;16.30;99.60;;;;;;5013730;28;20038;-59
2021/09/25 02:23:24;;;;;;;7.47;6.03;;;16.30;99.60;;;;;;5014826;28;20037;-58
2021/09/25 02:25:50;;;;;;;7.72;5.80;;;16.30;99.60;;;;;;5015172;28;20583;-56
2021/09/25 02:28:16;;;;;;;8.35;5.63;;;16.20;99.70;;;;;;5015412;28;20100;-59
2021/09/25 02:30:41;;;;;;;6.82;6.07;;;16.20;99.80;;;;;;5014101;28;20381;-60
2021/09/25 02:33:07;;;;;;;8.10;6.00;;;16.20;99.80;;;;;;5014053;28;20153;-59
2021/09/25 02:35:33;;;;;;;8.65;6.07;;;16.20;99.80;;;;;;5014941;28;20026;-58
2021/09/25 02:37:59;;;;;;;6.43;5.43;;;16.20;99.80;;;;;;5015228;28;20513;-61
2021/09/25 02:40:24;;;;;;;7.82;5.85;;;16.10;99.90;;;;;;5015016;28;20142;-58
2021/09/25 02:42:50;;;;;;;6.55;5.60;;;16.00;99.90;;;;;;5014489;28;20627;-55
2021/09/25 02:45:17;;;;;;;6.55;5.85;;;16.00;99.90;;;;;;5014650;28;20051;-57
2021/09/25 02:47:43;;;;;;;6.65;5.90;;;16.00;99.90;;;;;;5015229;28;20149;-56
2021/09/25 02:50:11;;;;;;;7.53;5.72;;;15.90;99.90;;;;;;5014756;28;20096;-63
2021/09/25 02:52:38;;;;;;;7.30;5.35;;;15.90;99.90;;;;;;5015059;28;20069;-57
2021/09/25 02:55:04;;;;;;;6.53;5.68;;;15.90;99.90;;;;;;5015119;28;20117;-57
2021/09/25 02:57:30;;;;;;;7.40;5.55;;;15.90;99.90;;;;;;5013227;28;20038;-55
2021/09/25 02:59:55;;;;;;;6.53;5.85;;;15.90;99.90;;;;;;5014750;28;20050;-54
2021/09/25 03:02:21;;;;;;;7.97;6.03;;;15.80;99.90;;;;;;5014277;28;20038;-60
2021/09/25 03:04:47;;;;;;;8.07;5.80;;;15.80;99.90;;;;;;5014385;28;20096;-57
2021/09/25 03:07:12;;;;;;;9.70;5.60;;;15.70;99.90;;;;;;5015062;28;20088;-57
2021/09/25 03:09:38;;;;;;;7.63;5.43;;;15.70;99.90;;;;;;5014774;28;20050;-57
2021/09/25 03:12:03;;;;;;;7.15;5.45;;;15.80;99.90;;;;;;5012753;28;20112;-59
2021/09/25 03:14:29;;;;;;;6.40;5.80;;;15.80;99.90;;;;;;5014868;28;20054;-58
2021/09/25 03:16:55;;;;;;;6.95;5.47;;;15.80;99.90;;;;;;5013907;28;20073;-52
2021/09/25 03:19:20;;;;;;;7.30;6.22;;;15.80;99.90;;;;;;5014236;28;20045;-55
2021/09/25 03:21:46;;;;;;;6.55;5.70;;;15.70;99.90;;;;;;5014088;28;20035;-60
2021/09/25 03:24:11;;;;;;;6.57;5.85;;;15.80;99.90;;;;;;5013978;28;20087;-57
2021/09/25 03:26:37;;;;;;;6.53;5.80;;;15.80;99.90;;;;;;5014382;28;20064;-55
2021/09/25 03:29:03;;;;;;;8.00;6.00;;;15.80;99.90;;;;;;5014040;28;20409;-57
2021/09/25 03:31:29;;;;;;;7.90;5.68;;;15.80;99.90;;;;;;5014685;28;20436;-58
2021/09/25 03:33:55;;;;;;;7.07;6.10;;;15.70;99.90;;;;;;5013249;28;20030;-60
2021/09/25 03:36:20;;;;;;;10.48;6.07;;;15.70;99.90;;;;;;5013607;28;20046;-56
2021/09/25 03:38:46;;;;;;;9.57;5.82;;;15.70;99.90;;;;;;5013844;28;20044;-55
2021/09/25 03:41:11;;;;;;;6.32;5.72;;;15.70;99.90;;;;;;5012340;28;20105;-57
2021/09/25 03:43:37;;;;;;;7.20;5.45;;;15.70;99.90;;;;;;5013524;28;20124;-58
2021/09/25 03:46:02;;;;;;;6.45;5.72;;;15.70;99.90;;;;;;5013540;28;20096;-58
2021/09/25 03:48:28;;;;;;;8.85;5.95;;;15.70;99.90;;;;;;5013495;28;20041;-60
2021/09/25 03:50:53;;;;;;;7.00;5.90;;;15.70;99.90;;;;;;5014258;28;20109;-56
2021/09/25 03:53:20;;;;;;;6.88;5.80;;;15.70;99.90;;;;;;5013219;28;20045;-53
2021/09/25 03:55:46;;;;;;;5.43;4.93;;;15.80;99.90;;;;;;5012510;28;20080;-53
2021/09/25 03:58:12;;;;;;;7.93;5.47;;;15.70;99.90;;;;;;5013554;28;20066;-58
2021/09/25 04:00:42;;;;;;;6.53;5.90;;;15.70;99.90;;;;;;5013042;28;20481;-58
2021/09/25 04:03:12;;;;;;;6.75;5.70;;;15.70;99.90;;;;;;5012855;28;20441;-56
2021/09/25 04:05:38;;;;;;;10.02;6.35;;;15.70;99.90;;;;;;5013447;28;20478;-58
2021/09/25 04:08:04;;;;;;;9.05;5.88;;;15.50;99.90;;;;;;5013423;28;20152;-58
2021/09/25 04:10:30;;;;;;;9.27;6.63;;;15.50;99.90;;;;;;5013282;28;20541;-54
2021/09/25 04:12:56;;;;;;;7.88;6.38;;;15.40;99.90;;;;;;5012925;28;20470;-58
2021/09/25 04:15:22;;;;;;;10.15;7.28;;;15.50;99.90;;;;;;5013259;28;20046;-55
2021/09/25 04:17:48;;;;;;;10.20;7.60;;;15.40;99.90;;;;;;5013341;28;20069;-59
2021/09/25 04:20:14;;;;;;;8.25;7.30;;;15.50;99.90;;;;;;5013476;28;20492;-58
2021/09/25 04:22:39;;;;;;;8.40;6.90;;;15.50;99.90;;;;;;5013373;28;20034;-56
2021/09/25 04:25:05;;;;;;;9.23;6.63;;;15.50;99.90;;;;;;5013308;28;20038;-60
2021/09/25 04:27:32;;;;;;;10.38;7.50;;;15.50;99.90;;;;;;5012901;28;20099;-54
2021/09/25 04:30:00;;;;;;;9.93;7.35;;;15.60;99.90;;;;;;5011694;28;20505;-54
2021/09/25 04:32:27;;;;;;;8.00;6.90;;;15.60;99.90;;;;;;5012700;28;20049;-54
2021/09/25 04:34:53;;;;;;;14.10;7.22;;;15.60;99.90;;;;;;5013109;28;20026;-53
2021/09/25 04:37:19;;;;;;;8.80;7.82;;;15.60;99.90;;;;;;5013184;28;20044;-53
2021/09/25 04:39:45;;;;;;;10.80;7.40;;;15.60;99.90;;;;;;5013079;28;20107;-59
2021/09/25 04:42:11;;;;;;;9.98;8.05;;;15.60;99.90;;;;;;5013111;28;20040;-54
2021/09/25 04:44:36;;;;;;;7.78;7.05;;;15.60;99.90;;;;;;5022219;28;20041;-51
2021/09/25 04:47:02;;;;;;;7.05;6.35;;;15.60;99.90;;;;;;5032149;28;20076;-55
2021/09/25 04:49:28;;;;;;;8.30;7.28;;;15.60;99.90;;;;;;5034201;28;20029;-58
2021/09/25 04:51:53;;;;;;;8.73;6.93;;;15.60;99.90;;;;;;5033536;28;20041;-54
2021/09/25 04:54:19;;;;;;;8.20;7.15;;;15.70;99.90;;;;;;5033056;28;20041;-58
2021/09/25 04:56:44;;;;;;;12.43;7.10;;;15.70;99.90;;;;;;5031964;28;20041;-54
2021/09/25 04:59:10;;;;;;;9.07;7.72;;;15.80;99.90;;;;;;5032823;28;20413;-60
2021/09/25 05:01:36;;;;;;;9.15;7.65;;;15.90;99.90;;;;;;5032988;28;20049;-57
2021/09/25 05:04:03;;;;;;;9.82;8.20;;;15.90;99.90;;;;;;5032812;28;20053;-60
2021/09/25 05:06:29;;;;;;;8.82;7.90;;;15.90;99.90;;;;;;5022919;28;20028;-59
2021/09/25 05:08:56;;;;;;;9.13;8.18;;;15.90;99.90;;;;;;5012263;28;20379;-56
2021/09/25 05:11:21;;;;;;;9.27;8.38;;;15.90;99.90;;;;;;5012319;28;20041;-53
2021/09/25 05:13:47;;;;;;;11.07;9.35;;;16.00;99.90;;;;;;5012495;28;20030;-54
2021/09/25 05:16:12;;;;;;;12.27;8.50;;;15.90;99.90;;;;;;5012991;28;20128;-59
2021/09/25 05:18:40;;;;;;;10.10;9.10;;;15.90;99.90;;;;;;5012879;28;20070;-58
2021/09/25 05:21:06;;;;;;;11.20;8.70;;;16.00;99.90;;;;;;5012243;28;20440;-52
2021/09/25 05:23:32;;;;;;;10.88;9.50;;;16.00;99.90;;;;;;5009986;28;20073;-54
2021/09/25 05:25:57;;;;;;;10.90;9.68;;;16.00;99.90;;;;;;4992496;28;20120;-55
2021/09/25 05:28:23;;;;;;;11.05;8.73;;;16.00;99.90;;;;;;4992571;28;20041;-62
2021/09/25 05:30:48;;;;;;;12.15;8.68;;;16.00;99.90;;;;;;4993315;28;20406;-57
2021/09/25 05:33:14;;;;;;;12.93;10.68;;;16.00;99.90;;;;;;4992048;28;20402;-55
2021/09/25 05:35:39;;;;;;;15.13;10.65;;;16.10;99.90;;;;;;4994917;28;20080;-61
2021/09/25 05:38:05;;;;;;;10.90;9.90;;;16.10;99.90;;;;;;5012207;28;20113;-59
2021/09/25 05:40:31;;;;;;;11.77;10.52;;;16.20;99.90;;;;;;5014159;28;20100;-61
2021/09/25 05:42:56;;;;;;;11.60;10.25;;;16.20;99.90;;;;;;5012276;28;20449;-57
2021/09/25 05:45:22;;;;;;;13.07;10.23;;;16.20;99.80;;;;;;5013581;28;20093;-59
2021/09/25 05:47:47;;;;;;;12.25;10.95;;;16.30;99.90;;;;;;5032117;28;20456;-59
2021/09/25 05:50:14;;;;;;;13.48;11.52;;;16.20;99.90;;;;;;5032080;28;20030;-55
2021/09/25 05:52:40;;;;;;;12.27;11.00;;;16.20;99.90;;;;;;5031588;28;20025;-59
2021/09/25 05:55:08;;;;;;;13.93;11.20;;;16.30;99.90;;;;;;5032330;28;20763;-58
2021/09/25 05:57:34;;;;;;;15.23;11.00;;;16.30;99.90;;;;;;5031015;28;20053;-58
2021/09/25 06:00:00;;;;;;;14.10;11.13;;;16.30;99.90;;;;;;5032245;28;20530;-61
2021/09/25 06:02:26;;;;;;;12.70;11.38;;;16.30;99.90;;;;;;5009960;28;20034;-60
2021/09/25 06:04:51;;;;;;;12.25;11.00;;;16.40;99.80;;;;;;5011912;28;20108;-60
2021/09/25 06:07:18;;;;;;;13.90;11.85;;;16.50;99.80;;;;;;5010775;28;20026;-61
2021/09/25 06:09:44;;;;;;;12.57;11.27;;;16.50;99.80;;;;;;5011875;28;20106;-57
2021/09/25 06:12:10;;;;;;;17.92;15.10;;;16.50;99.70;;;;;;5027696;28;20037;-60
2021/09/25 06:14:36;;;;;;;12.55;11.32;;;16.50;99.70;;;;;;5032888;28;20045;-58
2021/09/25 06:17:02;;;;;;;11.63;10.40;;;16.60;99.40;;;;;;5032033;28;20069;-52
2021/09/25 06:19:28;;;;;;;13.10;10.93;;;16.60;99.50;;;;;;5032480;28;20029;-57
2021/09/25 06:21:53;;;;;;;12.43;10.77;;;16.60;99.40;;;;;;5018363;28;20434;-56
2021/09/25 06:24:19;;;;;;;11.70;10.50;;;16.40;99.80;;;;;;5005826;28;20379;-52
2021/09/25 06:26:45;;;;;;;11.30;9.77;;;16.40;99.80;;;;;;5012449;28;20547;-59
2021/09/25 06:29:10;;;;;;;12.43;11.00;;;16.50;99.90;;;;;;5012174;28;20508;-59
2021/09/25 06:31:36;;;;;;;11.52;10.25;;;16.50;99.70;;;;;;5020389;28;20119;-55
2021/09/25 06:34:02;;;;;;;15.38;10.15;;;16.40;99.80;;;;;;5031203;28;20715;-59
2021/09/25 06:36:28;;;;;;;13.38;11.25;;;16.50;99.80;;;;;;5027553;28;20081;-55
2021/09/25 06:38:53;;;;;;;12.18;10.40;;;16.50;99.60;;;;;;5022853;28;20026;-57
2021/09/25 06:41:19;;;;;;;12.05;9.48;;;16.50;99.70;;;;;;5027444;28;20038;-57
2021/09/25 06:43:45;;;;;;;13.15;10.10;;;16.60;99.50;;;;;;5016532;28;20045;-58
2021/09/25 06:46:12;;;;;;;14.18;9.30;;;16.70;99.90;;;;;;5016496;28;20037;-55
2021/09/25 06:48:38;;;;;;;11.25;9.55;;;16.90;99.70;;;;;;5014978;28;20061;-57
2021/09/25 06:51:03;;;;;;;11.13;9.68;;;17.00;99.40;;;;;;5013364;28;20103;-56
2021/09/25 06:53:29;;;;;;;10.23;9.18;;;17.20;99.00;;;;;;5015494;28;20034;-60
2021/09/25 06:55:55;;;;;;;10.10;9.10;;;17.30;99.00;;;;;;5017166;28;20505;-62
2021/09/25 06:58:20;;;;;;;9.60;8.55;;;17.30;98.80;;;;;;5018539;28;20068;-59
2021/09/25 07:00:47;;;;;;;10.43;8.75;;;17.30;98.70;;;;;;5015943;28;20534;-56
2021/09/25 07:03:14;;;;;;;9.68;7.70;;;17.30;98.80;;;;;;5015844;28;20469;-58
2021/09/25 07:05:40;;;;;;;9.10;7.88;;;17.30;98.80;;;;;;5015638;28;20461;-58
2021/09/25 07:08:06;;;;;;;10.45;8.02;;;17.30;98.90;;;;;;5018759;28;20120;-57
2021/09/25 07:10:32;;;;;;;10.90;8.20;;;17.20;98.90;;;;;;5033013;28;20121;-56
2021/09/25 07:12:58;;;;;;;11.15;8.43;;;17.20;99.00;;;;;;5014944;28;20038;-61
2021/09/25 07:15:23;;;;;;;8.88;7.85;;;17.10;99.00;;;;;;5015371;28;20037;-56
2021/09/25 07:17:49;;;;;;;9.32;7.88;;;17.10;99.00;;;;;;5013686;28;20050;-53
2021/09/25 07:20:17;;;;;;;11.23;8.60;;;17.00;99.30;;;;;;5015108;28;20038;-57
2021/09/25 07:22:45;;;;;;;10.32;9.25;;;16.90;99.50;;;;;;5025132;28;20136;-54
2021/09/25 07:25:12;;;;;;;9.20;8.30;;;16.90;99.40;;;;;;5035244;28;20037;-57
2021/09/25 07:27:38;;;;;;;11.32;8.38;;;17.00;99.40;;;;;;5035287;28;20060;-57
2021/09/25 07:30:04;;;;;;;10.02;9.02;;;17.10;99.20;;;;;;5034534;28;20067;-61
2021/09/25 07:32:30;;;;;;;12.50;9.65;;;17.10;99.30;;;;;;5034597;28;20413;-59
2021/09/25 07:34:55;;;;;;;13.68;8.88;;;17.20;99.10;;;;;;5018661;28;20038;-57
2021/09/25 07:37:21;;;;;;;9.43;8.52;;;17.30;99.10;;;;;;5013695;28;20042;-56
2021/09/25 07:39:47;;;;;;;10.23;9.13;;;17.20;99.20;;;;;;5011671;28;20128;-58
2021/09/25 07:42:12;;;;;;;9.90;8.85;;;17.30;99.20;;;;;;5020195;28;20041;-60
2021/09/25 07:44:38;;;;;;;10.50;8.95;;;17.40;99.10;;;;;;5013945;28;20045;-56
2021/09/25 07:47:04;;;;;;;11.50;9.50;;;17.40;99.10;;;;;;5012932;28;20044;-55
2021/09/25 07:49:29;;;;;;;10.52;9.25;;;17.40;99.00;;;;;;5014266;28;20506;-56
2021/09/25 07:51:55;;;;;;;12.32;9.95;;;17.50;99.00;;;;;;5013860;28;20387;-56
2021/09/25 07:54:20;;;;;;;10.48;9.40;;;17.60;99.10;;;;;;5037325;28;20044;-60
2021/09/25 07:56:46;;;;;;;10.23;9.20;;;17.50;99.00;;;;;;5012649;28;20029;-57
2021/09/25 07:59:11;;;;;;;11.90;9.13;;;17.70;98.90;;;;;;5014582;28;20046;-59
2021/09/25 08:01:37;;;;;;;10.93;9.68;;;17.70;98.90;;;;;;5012755;28;20042;-59
2021/09/25 08:04:03;;;;;;;11.13;9.70;;;17.70;98.90;;;;;;5013542;28;20030;-60
2021/09/25 08:06:28;;;;;;;15.25;10.70;;;17.70;99.10;;;;;;5013560;28;20042;-56
2021/09/25 08:08:54;;;;;;;11.05;10.00;;;17.80;98.60;;;;;;5021300;28;20026;-60
2021/09/25 08:11:20;;;;;;;13.98;11.07;;;17.90;98.60;;;;;;5013812;28;20026;-58
2021/09/25 08:13:46;;;;;;;11.27;10.05;;;18.10;98.30;;;;;;5014727;28;20030;-59
2021/09/25 08:16:11;;;;;;;11.88;10.65;;;18.20;98.20;;;;;;5014948;28;20788;-62
2021/09/25 08:18:37;;;;;;;11.90;10.20;;;18.30;97.70;;;;;;5014490;28;20073;-62
2021/09/25 08:21:03;;;;;;;11.55;10.32;;;18.40;97.60;;;;;;5009106;28;20073;-58
2021/09/25 08:23:28;;;;;;;11.77;10.18;;;18.30;97.40;;;;;;5019459;28;20041;-58
2021/09/25 08:25:54;;;;;;;16.02;9.95;;;18.30;97.50;;;;;;5034107;28;20044;-58
2021/09/25 08:28:20;;;;;;;13.82;10.93;;;18.50;97.30;;;;;;5021688;28;20034;-62
2021/09/25 08:30:46;;;;;;;13.00;11.18;;;18.50;97.40;;;;;;5010516;28;20498;-65
2021/09/25 08:33:12;;;;;;;13.98;11.48;;;18.60;97.00;;;;;;5014307;28;20045;-67
2021/09/25 08:35:38;;;;;;;14.48;10.70;;;18.60;96.90;;;;;;5010301;28;20457;-68
2021/09/25 08:38:04;;;;;;;11.80;10.02;;;18.60;96.80;;;;;;5012674;28;20030;-63
2021/09/25 08:40:31;;;;;;;13.05;11.05;;;18.60;96.90;;;;;;5013617;28;20026;-68
2021/09/25 08:42:57;;;;;;;12.05;10.25;;;18.60;96.80;;;;;;5010821;28;20018;-65
2021/09/25 08:45:24;;;;;;;12.23;10.90;;;18.60;96.80;;;;;;5011927;28;20113;-61
2021/09/25 08:47:50;;;;;;;11.90;10.68;;;18.50;97.00;;;;;;5010482;28;20084;-62
2021/09/25 08:50:17;;;;;;;13.02;10.07;;;18.60;96.80;;;;;;5010950;28;20034;-58
2021/09/25 08:52:43;;;;;;;13.35;10.02;;;18.70;97.00;;;;;;5017836;28;20054;-62
2021/09/25 08:55:10;;;;;;;10.32;8.55;;;18.80;96.60;;;;;;5013472;28;20036;-59
2021/09/25 08:57:36;;;;;;;11.52;10.30;;;18.90;96.90;;;;;;5013226;28;20037;-64
2021/09/25 09:00:23;;;;;;;11.38;9.82;;;18.90;96.40;;;;;;5015946;28;20430;-61
2021/09/25 09:02:49;;;;;;;10.90;9.57;;;19.00;96.20;;;;;;5014000;28;20112;-67
2021/09/25 09:05:29;;;;;;;10.30;9.30;;;19.10;96.20;;;;;;5011857;28;20033;-67
2021/09/25 09:07:59;;;;;;;9.93;8.88;;;19.10;96.30;;;;;;5011200;28;20033;-66
2021/09/25 09:10:57;;;;;;;10.00;9.00;;;19.30;96.20;;;;;;5010836;28;20321;-66
2021/09/25 09:13:27;;;;;;;10.88;8.90;;;19.40;96.00;;;;;;4960195;28;20406;-66
2021/09/25 09:15:53;;;;;;;10.57;9.10;;;19.50;96.00;;;;;;5013398;28;20553;-66
2021/09/25 09:18:21;;;;;;;10.15;9.07;;;19.50;95.60;;;;;;5013526;28;20029;-67
2021/09/25 09:21:08;;;;;;;9.13;8.23;;;19.70;95.80;;;;;;5012123;28;20018;-66
2021/09/25 09:23:41;;;;;;;10.13;8.23;;;19.60;95.80;;;;;;5012602;28;20512;-66
2021/09/25 09:26:07;;;;;;;8.98;8.07;;;19.70;95.50;;;;;;5013830;28;20038;-66
2021/09/25 09:28:36;;;;;;;9.40;7.88;;;19.80;95.00;;;;;;5013223;28;20037;-66
2021/09/25 09:31:03;;;;;;;9.15;7.38;;;19.90;95.00;;;;;;5013959;28;20521;-68
2021/09/25 09:33:33;;;;;;;9.65;6.97;;;19.90;95.00;;;;;;5013040;28;20120;-66
2021/09/25 09:36:29;;;;;;;9.20;7.15;;;20.00;95.40;;;;;;5013077;28;20080;-65
2021/09/25 09:39:01;;;;;;;8.32;7.28;;;20.10;94.80;;;;;;5013709;28;20030;-65
2021/09/25 09:41:36;;;;;;;7.70;7.00;;;20.00;94.70;;;;;;5012347;28;20022;-67
2021/09/25 09:44:08;;;;;;;8.15;6.55;;;20.00;94.40;;;;;;5013342;28;20030;-66
2021/09/25 09:46:38;;;;;;;8.63;7.20;;;20.10;94.30;;;;;;5023406;28;20037;-65
2021/09/25 09:49:06;;;;;;;6.70;6.05;;;20.10;94.70;;;;;;5016484;28;20497;-66
2021/09/25 09:51:43;;;;;;;8.23;6.97;;;20.10;94.30;;;;;;5013190;28;20087;-66
2021/09/25 09:54:29;;;;;;;7.35;6.10;;;20.10;94.60;;;;;;5013400;28;20115;-65
2021/09/25 09:57:08;;;;;;;8.40;5.70;;;19.90;94.30;;;;;;5012216;28;20026;-67
2021/09/25 09:59:34;;;;;;;6.80;6.10;;;19.90;95.00;;;;;;4996159;28;20030;-65
2021/09/25 10:02:00;;;;;;;5.70;5.18;;;19.90;94.60;;;;;;5012362;28;20037;-67
2021/09/25 10:04:26;;;;;;;9.73;5.20;;;19.90;94.50;;;;;;5012876;28;20038;-65
2021/09/25 10:06:52;;;;;;;7.20;5.88;;;20.00;94.10;;;;;;5013088;28;20093;-65
2021/09/25 10:09:21;;;;;;;6.82;5.93;;;19.90;94.30;;;;;;5014579;28;20033;-64
2021/09/25 10:11:50;;;;;;;9.18;6.15;;;20.00;94.50;;;;;;5015924;28;20058;-66
2021/09/25 10:14:22;;;;;;;7.65;5.65;;;20.10;93.70;;;;;;5015761;28;20497;-65
2021/09/25 10:16:50;;;;;;;5.80;4.70;;;20.20;93.70;;;;;;5016736;28;20032;-66
2021/09/25 10:19:21;;;;;;;8.68;6.60;;;20.20;93.80;;;;;;5017015;28;20091;-65
2021/09/25 10:21:51;;;;;;;5.60;4.82;;;20.10;94.30;;;;;;5016930;28;20388;-66
2021/09/25 10:24:34;;;;;;;7.38;4.97;;;20.30;93.60;;;;;;5015416;28;20423;-64
2021/09/25 10:27:02;;;;;;;5.72;4.57;;;20.40;93.60;;;;;;5016602;28;20065;-65
2021/09/25 10:29:28;;;;;;;6.35;4.93;;;20.50;93.60;;;;;;5015658;28;20099;-65
2021/09/25 10:32:20;;;;;;;6.25;4.43;;;20.50;93.70;;;;;;5016167;28;20627;-66
2021/09/25 10:35:09;;;;;;;5.50;4.75;;;20.60;93.50;;;;;;5017238;28;20504;-67
2021/09/25 10:37:59;;;;;;;4.93;4.25;;;20.70;93.60;;;;;;5011653;28;20038;-65
2021/09/25 10:40:37;;;;;;;7.43;4.80;;;20.60;93.00;;;;;;4997246;28;20069;-66
2021/09/25 10:43:22;;;;;;;6.25;4.68;;;20.50;93.10;;;;;;4997076;28;20085;-65
2021/09/25 10:45:50;;;;;;;5.43;3.97;;;20.70;93.00;;;;;;5025551;28;20045;-65
2021/09/25 10:48:19;;;;;;;6.10;3.78;;;20.70;93.00;;;;;;5036287;28;20179;-66
2021/09/25 10:50:59;;;;;;;7.72;4.22;;;20.70;93.10;;;;;;5035886;28;20040;-66
2021/09/25 10:53:27;;;;;;;6.07;3.97;;;20.80;93.10;;;;;;5016459;28;20482;-66
2021/09/25 10:55:57;;;;;;;6.05;4.60;;;20.80;93.30;;;;;;5015077;28;20030;-65
2021/09/25 10:58:30;;;;;;;5.05;4.13;;;20.90;92.80;;;;;;5016398;28;20026;-65
2021/09/25 11:01:07;;;;;;;6.88;4.07;;;20.90;92.80;;;;;;5016287;28;20034;-66
2021/09/25 11:06:19;;;;;;;6.78;4.88;;;20.90;92.80;;;;;;5027267;28;20465;-67
2021/09/25 11:08:58;;;;;;;8.82;5.28;;;20.80;92.90;;;;;;5021144;28;20065;-66
2021/09/25 11:11:46;;;;;;;6.10;5.10;;;20.60;93.40;;;;;;5017540;28;20042;-67
2021/09/25 11:14:34;;;;;;;5.53;4.70;;;20.70;93.30;;;;;;5015556;28;20042;-67
2021/09/25 11:17:08;;;;;;;6.53;4.88;;;20.70;93.20;;;;;;5016825;28;20026;-66
2021/09/25 11:19:40;;;;;;;7.93;4.80;;;20.70;93.20;;;;;;5017322;28;20336;-67
2021/09/25 11:22:27;;;;;;;5.47;4.88;;;20.80;93.10;;;;;;4993509;28;20030;-67
2021/09/25 11:25:03;;;;;;;5.03;4.53;;;20.80;93.20;;;;;;4994506;28;20486;-66
2021/09/25 11:27:40;;;;;;;6.57;4.80;;;20.80;92.90;;;;;;4994902;28;20500;-67
2021/09/25 11:30:18;;;;;;;5.78;4.90;;;20.70;93.10;;;;;;4995888;28;20034;-67
2021/09/25 11:32:48;;;;;;;6.43;5.05;;;20.70;93.30;;;;;;4996149;28;20038;-67
2021/09/25 11:35:16;;;;;;;7.50;4.95;;;20.70;93.30;;;;;;4995176;28;20030;-66
2021/09/25 11:37:59;;;;;;;7.93;4.97;;;20.80;93.30;;;;;;5014060;28;20172;-68
2021/09/25 11:40:28;;;;;;;5.60;4.55;;;20.80;93.40;;;;;;5014300;28;20034;-66
2021/09/25 11:43:12;;;;;;;5.22;4.72;;;20.70;93.40;;;;;;5015975;28;20030;-66
2021/09/25 11:45:47;;;;;;;7.90;5.50;;;20.60;93.70;;;;;;5028641;28;20033;-66
2021/09/25 11:48:16;;;;;;;6.15;4.90;;;20.60;92.90;;;;;;5035811;28;20187;-67
2021/09/25 11:50:44;;;;;;;9.18;5.13;;;20.60;93.20;;;;;;5035219;28;20476;-67
2021/09/25 11:53:17;;;;;;;5.68;4.68;;;20.40;93.30;;;;;;5015202;28;20703;-67
2021/09/25 11:55:44;;;;;;;6.03;4.82;;;20.60;93.20;;;;;;5014909;28;20066;-67
2021/09/25 11:58:16;;;;;;;5.28;4.78;;;20.60;93.20;;;;;;5015951;28;20045;-68
2021/09/25 12:00:46;;;;;;;5.82;5.15;;;20.70;92.90;;;;;;5013885;28;20460;-68
2021/09/25 12:03:12;;;;;;;8.20;4.30;;;20.90;92.50;;;;;;5015609;28;20033;-67
2021/09/25 12:05:44;;;;;;;5.78;4.07;;;21.00;92.50;;;;;;5014962;28;20034;-65
2021/09/25 12:08:12;;;;;;;6.45;4.22;;;21.20;92.00;;;;;;5015306;28;20517;-67
2021/09/25 12:10:40;;;;;;;6.38;4.63;;;21.10;91.50;;;;;;5015535;28;20038;-67
2021/09/25 12:13:36;;;;;;;5.30;4.55;;;21.30;91.70;;;;;;5014983;28;20042;-67
2021/09/25 12:16:15;;;;;;;8.18;4.53;;;21.40;91.50;;;;;;5011817;28;20092;-67
2021/09/25 12:18:43;;;;;;;5.47;4.60;;;21.20;91.10;;;;;;5014592;28;20083;-67
2021/09/25 12:21:17;;;;;;;5.30;4.18;;;21.30;91.10;;;;;;5014365;28;20034;-67
2021/09/25 12:23:44;;;;;;;;;;;21.40;91.10;;;;;;5014625;28;20058;-66
2021/09/25 12:26:14;;;;;;;6.32;4.50;;;21.40;90.90;;;;;;5014179;28;19917;-68
2021/09/25 12:28:47;;;;;;;6.25;4.80;;;21.40;91.20;;;;;;5014620;28;20026;-67
2021/09/25 12:31:20;;;;;;;5.55;4.88;;;21.70;90.60;;;;;;5014647;28;20145;-67
2021/09/25 12:33:56;;;;;;;6.75;4.70;;;21.90;90.40;;;;;;5013898;28;20103;-66
2021/09/25 12:36:25;;;;;;;6.40;4.18;;;21.90;90.40;;;;;;5014412;28;20148;-66
2021/09/25 12:38:50;;;;;;;5.05;4.55;;;21.90;90.60;;;;;;4996778;28;20022;-66
2021/09/25 12:41:22;;;;;;;5.18;4.47;;;22.00;90.40;;;;;;5013078;28;20046;-67
2021/09/25 12:43:51;;;;;;;4.50;4.10;;;22.20;90.10;;;;;;5014372;28;20056;-68
2021/09/25 12:46:29;;;;;;;5.93;4.55;;;21.90;90.70;;;;;;5012317;28;20077;-66
2021/09/25 12:49:22;;;;;;;4.82;4.05;;;22.00;90.50;;;;;;5013759;28;20041;-67
2021/09/25 12:51:51;;;;;;;6.85;4.20;;;22.20;90.20;;;;;;5013025;28;20430;-68